• Join FlightAware (Why Join?)
  • Login
  • US Flag 
 
08:54PM EST


 

Airport Tracker/Info


-or-


 

Live Flight TrackerFlight Track Log ✈ EWG3170 ✈ 20-Mar-2012 ✈ EDDL / DUS - LFSB / EAP

Flight Track Log - Related Links

Times and Time Zones

All times are in EDT time to prevent confusion due to time zone crossing. See the EWG3170 flight status page for this flight to view local times or setup timezone preferences in your user account.

Time Position Orientation Groundspeed Altitude Reporting Facility
EDT Latitude Longitude Course Direction KTS MPH feet Rate Location/Type
02:27AM 51.2484 6.7759 172° South  Level Estimated
02:28AM 51.1537 6.7969 172° South  Level Estimated
02:29AM 51.0589 6.8179 172° South  Level Estimated
02:30AM 50.9642 6.8387 172° South  Level Estimated
02:31AM 50.8695 6.8595 172° South  Level Estimated
02:32AM 50.7747 6.8801 172° South  Level Estimated
02:33AM 50.6800 6.9008 172° South  Level Estimated
02:34AM 50.5852 6.9213 172° South  Level Estimated
02:35AM 50.4904 6.9417 172° South  Level Estimated
02:36AM 50.3957 6.9620 172° South  Level Estimated
02:37AM 50.3009 6.9823 172° South  Level Estimated
02:38AM 50.2061 7.0025 172° South  Level Estimated
02:39AM 50.1114 7.0226 172° South  Level Estimated
02:40AM 50.0166 7.0426 172° South  Level Estimated
02:41AM 49.9218 7.0626 172° South  Level Estimated
02:42AM 49.8270 7.0825 172° South  Level Estimated
02:43AM 49.7322 7.1023 172° South  Level Estimated
02:44AM 49.6375 7.1220 172° South  Level Estimated
02:45AM 49.5427 7.1416 172° South  Level Estimated
02:46AM 49.4479 7.1612 172° South  Level Estimated
02:47AM 49.3531 7.1807 172° South  Level Estimated
02:48AM 49.2583 7.2001 172° South  Level Estimated
02:49AM 49.1634 7.2194 172° South  Level Estimated
02:50AM 49.0686 7.2387 172° South  Level Estimated
02:51AM 48.9738 7.2579 172° South  Level Estimated
02:52AM 48.8790 7.2770 172° South  Level Estimated
02:53AM 48.7842 7.2960 172° South  Level Estimated
02:54AM 48.6894 7.3150 172° South  Level Estimated
02:55AM 48.5946 7.3339 173° South  Level Estimated
02:56AM 48.4997 7.3527 173° South  Level Estimated
02:57AM 48.4049 7.3715 173° South  Level Estimated
02:58AM 48.3101 7.3902 173° South  Level Estimated
02:59AM 48.2152 7.4088 173° South  Level Estimated
03:00AM 48.1204 7.4273 173° South  Level Estimated
03:01AM 48.0256 7.4458 173° South  Level Estimated
03:02AM 47.9307 7.4642 173° South  Level Estimated
03:03AM 47.8359 7.4826 173° South  Level Estimated
03:04AM 47.7410 7.5009 173° South  Level Estimated
03:05AM 47.6461 7.5191 173° South  Level Estimated
03:06AM 47.5513 7.5372 353° North  Level Estimated
03:07AM 47.6461 7.5191 173° South  Level Estimated
03:08AM 47.5513 7.5372 353° North  Level Estimated
03:09AM 47.6461 7.5191 173° South  Level Estimated
03:10AM 47.5513 7.5372 353° North  Level Estimated
03:11AM 47.6461 7.5191 173° South  Level Estimated
03:12AM 47.5513 7.5372 353° North  Level Estimated
03:13AM 47.6461 7.5191 353° North  Level Estimated